Time;durP1;ratioP1;P1;durP2;ratioP2;P2;SDS_P1;SDS_P2;PMS_P1;PMS_P2;Temp;Humidity;BMP_temperature;BMP_pressure;BME280_temperature;BME280_humidity;BME280_pressure;Samples;Min_cycle;Max_cycle;Signal;HPM_P1;HPM_P2
2022/07/30 00:00:15;;;;;;;4.10;2.90;;;25.60;72.90;;;;;;6159291;28;80415;-70
2022/07/30 00:03:16;;;;;;;5.05;2.85;;;25.60;72.90;;;;;;6159318;28;80812;-70
2022/07/30 00:06:16;;;;;;;4.07;2.78;;;25.60;73.00;;;;;;6149497;28;83738;-68
2022/07/30 00:09:17;;;;;;;5.50;2.92;;;25.60;72.90;;;;;;6152588;28;80301;-69
2022/07/30 00:12:17;;;;;;;3.90;2.90;;;25.60;72.70;;;;;;6156405;28;80542;-68
2022/07/30 00:15:18;;;;;;;3.38;3.08;;;25.60;72.70;;;;;;6161571;28;80723;-69
2022/07/30 00:18:18;;;;;;;4.60;2.78;;;25.60;72.50;;;;;;6160592;28;80787;-68
2022/07/30 00:21:19;;;;;;;3.78;2.78;;;25.60;72.30;;;;;;6160266;28;81823;-69
2022/07/30 00:24:19;;;;;;;5.55;2.83;;;25.60;72.40;;;;;;6162138;28;81444;-70
2022/07/30 00:27:19;;;;;;;4.20;2.90;;;25.60;72.50;;;;;;6155574;28;80632;-70
2022/07/30 00:30:20;;;;;;;3.20;2.80;;;25.60;72.50;;;;;;6140391;28;80293;-69
2022/07/30 00:33:21;;;;;;;5.25;2.90;;;25.60;72.40;;;;;;6159960;28;83030;-70
2022/07/30 00:36:21;;;;;;;5.28;2.90;;;25.60;72.40;;;;;;6148337;28;81513;-70
2022/07/30 00:39:22;;;;;;;2.80;2.60;;;25.60;72.30;;;;;;6160343;28;82071;-69
2022/07/30 00:42:25;;;;;;;5.90;2.78;;;25.60;72.30;;;;;;6163096;28;81918;-70
2022/07/30 00:45:26;;;;;;;3.17;2.65;;;25.60;72.30;;;;;;6157402;28;81746;-69
2022/07/30 00:48:26;;;;;;;4.93;3.03;;;25.60;72.40;;;;;;6161715;28;80452;-69
2022/07/30 00:51:27;;;;;;;4.55;3.20;;;25.60;72.60;;;;;;6161684;28;81918;-68
2022/07/30 00:54:27;;;;;;;4.05;3.05;;;25.60;72.70;;;;;;6148497;28;80320;-68
2022/07/30 00:57:28;;;;;;;3.83;2.95;;;25.50;72.60;;;;;;6152956;28;80361;-70
2022/07/30 01:00:28;;;;;;;9.57;3.15;;;25.60;72.50;;;;;;6161604;28;80636;-70
2022/07/30 01:03:29;;;;;;;4.93;3.10;;;25.60;72.70;;;;;;6153724;28;83366;-70
2022/07/30 01:06:29;;;;;;;4.05;3.00;;;25.60;72.50;;;;;;6122043;28;83625;-69
2022/07/30 01:09:30;;;;;;;3.90;2.83;;;25.60;72.60;;;;;;6161010;28;80318;-69
2022/07/30 01:12:30;;;;;;;5.15;3.05;;;25.60;72.40;;;;;;6156340;28;83061;-70
2022/07/30 01:15:31;;;;;;;6.30;3.15;;;25.60;72.50;;;;;;6153372;28;80064;-69
2022/07/30 01:21:51;;;;;;;3.88;2.92;;;25.50;72.40;;;;;;6152856;28;85566;-69
2022/07/30 01:24:51;;;;;;;4.40;3.58;;;25.60;72.40;;;;;;6159782;28;82015;-70
2022/07/30 01:27:52;;;;;;;5.75;3.55;;;25.50;72.40;;;;;;6155413;28;83259;-68
2022/07/30 01:30:52;;;;;;;4.80;3.03;;;25.50;72.50;;;;;;6157412;28;80866;-73
2022/07/30 01:33:53;;;;;;;5.10;3.13;;;25.50;72.50;;;;;;6157747;28;83683;-71
2022/07/30 01:36:53;;;;;;;6.47;3.38;;;25.50;72.40;;;;;;6159256;28;83284;-71
2022/07/30 01:39:54;;;;;;;7.63;3.20;;;25.50;72.30;;;;;;6150768;28;80380;-70
2022/07/30 01:42:56;;;;;;;4.75;2.88;;;25.50;72.40;;;;;;6135439;28;83178;-70
2022/07/30 01:45:56;;;;;;;5.47;3.85;;;25.50;72.20;;;;;;6142981;28;83641;-70
2022/07/30 01:48:57;;;;;;;3.00;2.70;;;25.50;72.10;;;;;;6152928;28;82224;-70
2022/07/30 01:51:58;;;;;;;4.15;3.13;;;25.60;72.30;;;;;;6159826;28;83219;-70
2022/07/30 01:54:59;;;;;;;5.10;3.53;;;25.60;72.50;;;;;;6152877;28;83772;-69
2022/07/30 01:58:00;;;;;;;3.75;3.22;;;25.60;72.40;;;;;;6144812;28;81993;-69
2022/07/30 02:01:01;;;;;;;4.85;2.95;;;25.50;72.50;;;;;;6158542;28;82766;-70
2022/07/30 02:04:02;;;;;;;3.38;3.08;;;25.60;72.30;;;;;;6133972;28;81682;-69
2022/07/30 02:07:03;;;;;;;4.20;3.20;;;25.60;72.30;;;;;;6153426;28;83466;-70
2022/07/30 02:10:04;;;;;;;3.67;2.72;;;25.60;72.40;;;;;;6150925;28;83268;-69
2022/07/30 02:13:11;;;;;;;4.88;3.03;;;25.60;72.10;;;;;;6146359;28;81529;-70
2022/07/30 02:16:13;;;;;;;7.15;3.13;;;25.60;72.10;;;;;;6153865;28;81428;-71
2022/07/30 02:19:13;;;;;;;4.60;3.00;;;25.60;72.40;;;;;;6147581;28;83314;-69
2022/07/30 02:22:14;;;;;;;7.40;2.40;;;25.60;72.60;;;;;;6159333;28;82715;-70
2022/07/30 02:25:14;;;;;;;4.75;3.22;;;25.60;71.90;;;;;;6158941;28;82337;-70
2022/07/30 02:28:15;;;;;;;4.53;3.28;;;25.60;72.60;;;;;;6159096;28;83114;-70
2022/07/30 02:31:16;;;;;;;3.95;2.95;;;25.60;72.60;;;;;;6154451;28;84479;-70
2022/07/30 02:34:16;;;;;;;7.00;3.25;;;25.50;72.60;;;;;;6158533;28;81611;-71
2022/07/30 02:37:17;;;;;;;5.13;3.20;;;25.50;72.60;;;;;;6149769;28;83500;-71
2022/07/30 02:40:18;;;;;;;5.63;3.58;;;25.60;72.50;;;;;;6157927;28;83689;-70
2022/07/30 02:43:20;;;;;;;4.32;2.90;;;25.60;72.60;;;;;;6159486;28;81787;-71
2022/07/30 02:46:20;;;;;;;5.57;2.95;;;25.50;72.50;;;;;;6148392;28;83734;-69
2022/07/30 02:49:47;;;;;;;5.38;2.83;;;25.50;72.80;;;;;;6138945;28;80695;-69
2022/07/30 02:52:47;;;;;;;5.95;2.97;;;25.50;72.60;;;;;;6145587;28;80416;-69
2022/07/30 02:55:48;;;;;;;4.35;2.83;;;25.50;72.70;;;;;;6152111;28;83199;-69
2022/07/30 02:58:48;;;;;;;3.67;3.08;;;25.50;72.50;;;;;;6158132;28;80769;-70
2022/07/30 03:01:49;;;;;;;3.80;2.72;;;25.50;72.60;;;;;;6147333;28;83175;-69
2022/07/30 03:04:50;;;;;;;3.70;2.78;;;25.50;72.60;;;;;;6157741;28;83441;-69
2022/07/30 03:07:50;;;;;;;6.72;2.90;;;25.50;72.20;;;;;;6156521;28;80660;-69
2022/07/30 03:10:51;;;;;;;4.97;3.50;;;25.50;72.00;;;;;;6150471;28;83009;-70
2022/07/30 03:13:51;;;;;;;5.60;3.17;;;25.50;72.50;;;;;;6159258;28;80523;-69
2022/07/30 03:16:53;;;;;;;3.78;2.92;;;25.50;72.40;;;;;;6157833;28;83224;-71
2022/07/30 03:19:53;;;;;;;5.72;3.55;;;25.50;72.20;;;;;;6150097;28;83305;-71
2022/07/30 03:22:55;;;;;;;6.15;3.45;;;25.50;72.30;;;;;;6156282;28;80300;-70
2022/07/30 03:25:55;;;;;;;6.65;4.20;;;25.50;72.30;;;;;;6146701;28;83243;-69
2022/07/30 03:28:56;;;;;;;6.82;3.97;;;25.50;72.30;;;;;;6159263;28;80274;-70
2022/07/30 03:31:56;;;;;;;4.03;3.38;;;25.50;72.40;;;;;;6154311;28;83715;-71
2022/07/30 03:34:57;;;;;;;4.03;3.53;;;25.50;72.40;;;;;;6143257;28;81095;-71
2022/07/30 03:37:58;;;;;;;4.50;3.38;;;25.50;72.50;;;;;;6157500;28;83687;-72
2022/07/30 03:40:58;;;;;;;8.50;3.97;;;25.50;72.40;;;;;;6155806;28;83180;-71
2022/07/30 03:43:59;;;;;;;6.10;3.90;;;25.50;72.40;;;;;;6156961;28;83189;-69
2022/07/30 03:47:00;;;;;;;5.93;3.90;;;25.50;72.40;;;;;;6153009;28;80665;-69
2022/07/30 03:50:00;;;;;;;6.03;3.97;;;25.50;72.50;;;;;;6146158;28;82181;-72
2022/07/30 03:53:01;;;;;;;3.58;3.25;;;25.50;72.30;;;;;;6142345;28;83257;-69
2022/07/30 03:56:02;;;;;;;5.68;3.83;;;25.50;72.20;;;;;;6155650;28;82973;-70
2022/07/30 03:59:41;;;;;;;13.07;3.40;;;25.50;72.20;;;;;;6145013;28;81561;-70
2022/07/30 04:02:42;;;;;;;4.35;3.58;;;25.50;72.30;;;;;;6140115;28;83406;-71
2022/07/30 04:06:09;;;;;;;4.45;3.10;;;25.50;72.20;;;;;;6133966;28;80696;-71
2022/07/30 04:09:09;;;;;;;6.70;3.65;;;25.50;72.20;;;;;;6149112;28;83703;-70
2022/07/30 04:12:12;;;;;;;5.68;3.40;;;25.50;72.20;;;;;;6155007;28;87369;-71
2022/07/30 04:15:13;;;;;;;9.40;3.58;;;25.50;72.40;;;;;;6156363;28;83000;-71
2022/07/30 04:18:13;;;;;;;4.93;3.53;;;25.50;72.50;;;;;;6138243;28;82362;-72
2022/07/30 04:21:14;;;;;;;4.50;3.60;;;25.50;72.30;;;;;;6146533;28;82970;-71
2022/07/30 04:24:14;;;;;;;7.88;4.22;;;25.50;72.20;;;;;;6157259;28;81460;-69
2022/07/30 04:27:15;;;;;;;5.32;3.70;;;25.50;72.20;;;;;;6156521;28;82958;-71
2022/07/30 04:30:15;;;;;;;4.80;3.55;;;25.50;72.20;;;;;;6150843;28;80780;-71
2022/07/30 04:33:16;;;;;;;4.35;3.45;;;25.60;72.60;;;;;;6144712;28;80728;-70
2022/07/30 04:36:32;;;;;;;4.63;3.78;;;25.60;72.30;;;;;;6147370;28;81784;-75
2022/07/30 04:39:33;;;;;;;4.15;2.90;;;25.60;72.50;;;;;;6138272;28;80363;-71
2022/07/30 04:42:33;;;;;;;4.63;3.65;;;25.60;73.50;;;;;;6140570;28;83197;-69
2022/07/30 04:45:39;;;;;;;6.18;3.42;;;25.60;73.50;;;;;;6151991;28;88006;-72
2022/07/30 04:48:39;;;;;;;9.55;4.03;;;25.60;74.00;;;;;;6159489;28;83523;-68
2022/07/30 04:51:45;;;;;;;6.55;3.33;;;25.60;73.80;;;;;;6160443;28;82991;-68
2022/07/30 04:54:46;;;;;;;7.07;3.47;;;25.60;73.40;;;;;;6158420;28;83251;-68
2022/07/30 04:57:47;;;;;;;5.18;3.42;;;25.60;74.00;;;;;;6151140;28;83488;-66
2022/07/30 05:00:48;;;;;;;17.05;4.57;;;25.60;74.40;;;;;;6154403;28;82943;-68
2022/07/30 05:03:50;;;;;;;8.52;4.10;;;25.60;74.60;;;;;;6157210;28;83465;-74
2022/07/30 05:06:51;;;;;;;8.82;4.80;;;25.60;75.20;;;;;;6152886;28;83531;-68
2022/07/30 05:09:51;;;;;;;11.95;5.15;;;25.60;75.30;;;;;;6145661;28;83176;-68
2022/07/30 05:12:52;;;;;;;10.10;5.75;;;25.70;75.00;;;;;;6141694;28;80745;-72
2022/07/30 05:15:54;;;;;;;8.40;5.28;;;25.70;74.80;;;;;;6141135;28;83037;-74
2022/07/30 05:18:55;;;;;;;12.52;5.93;;;25.70;74.90;;;;;;6139522;28;81356;-67
2022/07/30 05:21:55;;;;;;;11.88;6.03;;;25.70;74.30;;;;;;6154907;28;80834;-68
2022/07/30 05:24:57;;;;;;;10.32;6.85;;;25.70;74.50;;;;;;6155439;28;82836;-68
2022/07/30 05:27:57;;;;;;;11.07;6.63;;;25.70;75.00;;;;;;6154392;28;83456;-68
2022/07/30 05:30:58;;;;;;;9.10;5.63;;;25.70;74.20;;;;;;6154039;28;83527;-68
2022/07/30 05:33:59;;;;;;;10.10;7.00;;;25.70;74.20;;;;;;6144495;28;82953;-67
2022/07/30 05:37:05;;;;;;;12.20;8.48;;;25.70;74.60;;;;;;6153121;28;83099;-68
2022/07/30 05:40:06;;;;;;;12.65;7.75;;;25.70;74.30;;;;;;6154451;28;83010;-69
2022/07/30 05:43:31;;;;;;;13.35;7.07;;;25.80;74.30;;;;;;6141701;28;81991;-69
2022/07/30 05:46:32;;;;;;;18.10;9.88;;;25.80;74.40;;;;;;6151199;28;82752;-71
2022/07/30 05:49:33;;;;;;;18.58;11.15;;;25.80;75.00;;;;;;6152642;28;82282;-69
2022/07/30 05:52:45;;;;;;;22.67;11.38;;;25.80;75.50;;;;;;6143407;28;83122;-69
2022/07/30 05:56:06;;;;;;;17.95;10.90;;;25.80;75.80;;;;;;6149464;28;83642;-71
2022/07/30 05:59:23;;;;;;;26.38;13.40;;;25.70;76.50;;;;;;6147193;28;84401;-69
2022/07/30 06:02:42;;;;;;;23.02;14.00;;;25.80;76.50;;;;;;6136145;28;86076;-70
2022/07/30 06:05:42;;;;;;;19.13;12.85;;;25.80;76.60;;;;;;6145608;28;82989;-68
2022/07/30 06:08:43;;;;;;;25.40;13.32;;;25.80;76.80;;;;;;6127931;28;85872;-69
2022/07/30 06:11:44;;;;;;;24.38;11.38;;;25.90;76.70;;;;;;6144618;28;85336;-69
2022/07/30 06:14:45;;;;;;;19.98;10.93;;;25.90;76.00;;;;;;6149024;28;85877;-68
2022/07/30 06:17:50;;;;;;;14.82;9.98;;;25.90;75.90;;;;;;6150622;28;86816;-67
2022/07/30 06:20:53;;;;;;;19.27;9.05;;;26.00;75.20;;;;;;6149855;28;84821;-65
2022/07/30 06:24:05;;;;;;;13.18;8.25;;;25.90;75.50;;;;;;6156687;28;85688;-67
2022/07/30 06:27:13;;;;;;;13.75;8.65;;;25.90;75.60;;;;;;6149624;28;82195;-67
2022/07/30 06:30:13;;;;;;;15.27;8.68;;;25.90;75.00;;;;;;6149597;28;81334;-67
2022/07/30 06:33:15;;;;;;;25.77;8.50;;;25.90;74.30;;;;;;6148890;28;82897;-67
2022/07/30 06:36:16;;;;;;;14.98;6.85;;;25.90;74.40;;;;;;6147993;28;82079;-66
2022/07/30 06:39:25;;;;;;;11.80;7.78;;;25.90;74.90;;;;;;6155300;28;81487;-67
2022/07/30 06:42:32;;;;;;;12.20;7.35;;;25.90;75.10;;;;;;6157048;28;80494;-75
2022/07/30 06:45:51;;;;;;;14.02;7.70;;;25.90;75.10;;;;;;6148299;28;84664;-80
2022/07/30 06:49:01;;;;;;;10.30;6.55;;;25.90;75.10;;;;;;6158518;28;80379;-80
2022/07/30 06:52:02;;;;;;;9.98;6.53;;;25.90;75.20;;;;;;6146990;28;83154;-68
2022/07/30 06:55:03;;;;;;;10.80;7.25;;;25.90;75.30;;;;;;6148688;28;82998;-66
2022/07/30 06:58:13;;;;;;;13.30;7.50;;;25.90;75.50;;;;;;6141656;28;81886;-64
2022/07/30 07:01:33;;;;;;;12.23;7.43;;;25.90;75.30;;;;;;6142987;28;81726;-63
2022/07/30 07:04:34;;;;;;;9.80;6.47;;;25.90;75.70;;;;;;6145681;28;82076;-64
2022/07/30 07:07:34;;;;;;;11.02;5.95;;;25.90;75.30;;;;;;6154576;28;81916;-64
2022/07/30 07:10:35;;;;;;;14.25;7.80;;;26.00;75.50;;;;;;6154814;28;83507;-64
2022/07/30 07:13:48;;;;;;;10.55;7.30;;;25.90;75.90;;;;;;6145250;28;83770;-64
2022/07/30 07:16:57;;;;;;;9.45;6.80;;;25.90;75.70;;;;;;6145177;28;81483;-64
2022/07/30 07:20:16;;;;;;;8.65;6.47;;;25.90;76.00;;;;;;6155389;28;80740;-64
2022/07/30 07:23:22;;;;;;;13.88;7.60;;;25.90;76.20;;;;;;6143087;28;83498;-64
2022/07/30 07:26:25;;;;;;;8.02;5.95;;;25.90;76.40;;;;;;6157533;28;83308;-67
2022/07/30 07:29:26;;;;;;;12.43;6.72;;;25.90;76.00;;;;;;6146823;28;80547;-71
2022/07/30 07:32:26;;;;;;;11.25;6.55;;;25.90;76.30;;;;;;6135856;28;81567;-69
2022/07/30 07:35:27;;;;;;;11.48;6.50;;;26.00;76.20;;;;;;6155227;28;80861;-64
2022/07/30 07:38:28;;;;;;;9.10;6.63;;;25.90;76.50;;;;;;6156713;28;82746;-65
2022/07/30 07:41:29;;;;;;;14.30;6.45;;;26.00;76.60;;;;;;6143939;28;83234;-64
2022/07/30 07:44:30;;;;;;;9.43;6.43;;;26.00;76.60;;;;;;6149888;28;80670;-63
2022/07/30 07:47:30;;;;;;;16.30;7.45;;;25.90;76.80;;;;;;6138552;28;83730;-65
2022/07/30 07:50:44;;;;;;;13.95;6.82;;;26.00;77.10;;;;;;6112857;28;82267;-65
2022/07/30 07:53:55;;;;;;;10.55;6.40;;;26.00;76.90;;;;;;6150835;28;81804;-64
2022/07/30 07:57:00;;;;;;;9.95;6.40;;;26.00;76.80;;;;;;6145867;28;81475;-64
2022/07/30 08:00:16;;;;;;;7.63;5.75;;;26.00;76.90;;;;;;6143879;28;81432;-65
2022/07/30 08:03:19;;;;;;;11.15;5.95;;;26.00;77.00;;;;;;6140311;28;80020;-65
2022/07/30 08:06:20;;;;;;;17.42;6.60;;;26.00;76.70;;;;;;6148243;28;82988;-64
2022/07/30 08:09:38;;;;;;;10.48;7.05;;;26.00;76.70;;;;;;6144920;28;86031;-64
2022/07/30 08:12:50;;;;;;;8.57;6.47;;;26.00;77.10;;;;;;6145401;28;81292;-66
2022/07/30 08:16:26;;;;;;;11.05;7.35;;;26.10;77.00;;;;;;6106108;28;81102;-69
2022/07/30 08:19:45;;;;;;;12.25;6.22;;;26.00;77.40;;;;;;6142937;28;81236;-67
2022/07/30 08:22:51;;;;;;;;;;;26.10;77.20;;;;;;6162354;28;82729;-67
2022/07/30 08:25:51;;;;;;;8.32;6.22;;;26.10;77.10;;;;;;6135993;28;81748;-74
2022/07/30 08:28:52;;;;;;;11.70;6.13;;;26.10;77.20;;;;;;6153011;28;80588;-68
2022/07/30 08:31:53;;;;;;;9.73;6.03;;;26.10;77.30;;;;;;6155069;28;82004;-64
2022/07/30 08:34:57;;;;;;;8.60;6.47;;;26.10;77.80;;;;;;6148215;28;81773;-66
2022/07/30 08:37:58;;;;;;;8.23;5.60;;;26.10;77.60;;;;;;6127699;28;82590;-79
2022/07/30 08:40:59;;;;;;;9.65;6.75;;;26.10;77.10;;;;;;6138958;28;81648;-66
2022/07/30 08:44:00;;;;;;;12.30;6.63;;;26.10;77.80;;;;;;6139878;28;81280;-65
2022/07/30 08:47:01;;;;;;;11.65;8.02;;;26.10;77.70;;;;;;6145137;28;81657;-65
2022/07/30 08:50:22;;;;;;;11.05;7.47;;;26.10;77.90;;;;;;6144040;28;80943;-64
2022/07/30 08:53:45;;;;;;;7.80;5.80;;;26.00;77.60;;;;;;6129289;28;81433;-64
2022/07/30 08:56:48;;;;;;;8.52;5.63;;;26.00;77.60;;;;;;6159003;28;83083;-65
2022/07/30 08:59:50;;;;;;;8.02;5.93;;;26.00;77.50;;;;;;6158000;28;82672;-65
2022/07/30 09:02:51;;;;;;;8.82;5.75;;;26.00;77.50;;;;;;6157699;28;82218;-65
2022/07/30 09:05:52;;;;;;;7.72;4.95;;;26.00;77.30;;;;;;6154924;28;81261;-66
2022/07/30 09:08:53;;;;;;;6.63;5.05;;;26.00;77.40;;;;;;6159142;28;83572;-65
2022/07/30 09:11:53;;;;;;;11.60;5.32;;;26.00;77.20;;;;;;6153831;28;83190;-65
2022/07/30 09:14:54;;;;;;;8.93;4.50;;;26.00;77.20;;;;;;6142469;28;81560;-76
2022/07/30 09:17:56;;;;;;;7.95;4.95;;;26.10;77.60;;;;;;6155415;28;82799;-66
2022/07/30 09:20:58;;;;;;;6.22;4.30;;;26.10;77.60;;;;;;6155288;28;83988;-65
2022/07/30 09:23:59;;;;;;;5.72;4.57;;;26.10;77.20;;;;;;6150146;28;83424;-66
2022/07/30 09:27:18;;;;;;;4.70;4.10;;;26.10;77.20;;;;;;6144713;28;80407;-66
2022/07/30 09:30:21;;;;;;;11.73;5.30;;;26.10;76.70;;;;;;6158894;28;80430;-65
2022/07/30 09:33:41;;;;;;;9.45;4.82;;;26.20;77.60;;;;;;6145864;28;84589;-67
2022/07/30 09:37:02;;;;;;;8.05;4.70;;;26.20;77.50;;;;;;6152528;28;82322;-66
2022/07/30 09:40:28;;;;;;;7.10;5.07;;;26.30;77.80;;;;;;6114052;28;81235;-72
2022/07/30 09:43:48;;;;;;;8.38;5.20;;;26.20;78.20;;;;;;6129015;28;80501;-65
2022/07/30 09:46:58;;;;;;;10.25;5.07;;;26.30;77.90;;;;;;6131279;28;82294;-67
2022/07/30 09:50:04;;;;;;;9.43;5.07;;;26.30;77.70;;;;;;6135859;28;83263;-66
2022/07/30 09:53:05;;;;;;;9.52;5.28;;;26.30;77.40;;;;;;6156807;28;83295;-66
2022/07/30 09:56:05;;;;;;;16.77;7.05;;;26.30;76.90;;;;;;6150822;28;80759;-67
2022/07/30 09:59:06;;;;;;;7.78;5.05;;;26.40;77.30;;;;;;6151324;28;83486;-65
2022/07/30 10:02:07;;;;;;;9.68;5.25;;;26.40;77.20;;;;;;6158544;28;81974;-68
2022/07/30 10:05:26;;;;;;;9.80;5.47;;;26.40;77.10;;;;;;6154172;28;81371;-67
2022/07/30 10:08:27;;;;;;;9.85;5.03;;;26.40;77.10;;;;;;6160742;28;80792;-66
2022/07/30 10:11:29;;;;;;;8.10;5.50;;;26.40;76.80;;;;;;6146202;28;80824;-68
2022/07/30 10:14:31;;;;;;;14.23;4.93;;;26.40;76.70;;;;;;6147755;28;83826;-68
2022/07/30 10:17:33;;;;;;;8.48;4.90;;;26.40;76.40;;;;;;6129405;28;82558;-69
2022/07/30 10:21:06;;;;;;;8.73;5.45;;;26.40;76.40;;;;;;6119909;28;81195;-66
2022/07/30 10:24:41;;;;;;;9.68;5.57;;;26.40;78.30;;;;;;6147523;28;85841;-69
2022/07/30 10:28:00;;;;;;;5.68;5.07;;;26.40;77.40;;;;;;6149271;28;80347;-68
2022/07/30 10:31:03;;;;;;;7.38;5.10;;;26.40;77.00;;;;;;6150489;28;83272;-68
2022/07/30 10:34:03;;;;;;;7.60;5.07;;;26.50;76.80;;;;;;6160019;28;81232;-69
2022/07/30 10:37:04;;;;;;;13.43;6.35;;;26.50;76.70;;;;;;6160095;28;80120;-68
2022/07/30 10:40:04;;;;;;;7.03;5.18;;;26.50;77.20;;;;;;6158405;28;80516;-68
2022/07/30 10:43:05;;;;;;;9.35;4.60;;;26.50;77.10;;;;;;6151126;28;80374;-68
2022/07/30 10:46:05;;;;;;;8.75;5.18;;;26.50;77.10;;;;;;6150254;28;81304;-68
2022/07/30 10:49:06;;;;;;;8.18;5.82;;;26.60;77.60;;;;;;6150928;28;80652;-68
2022/07/30 10:52:06;;;;;;;12.68;6.43;;;26.60;78.20;;;;;;6144738;28;81454;-68
2022/07/30 10:55:07;;;;;;;15.48;7.45;;;26.70;78.90;;;;;;6147335;28;80477;-68
2022/07/30 10:58:08;;;;;;;39.20;12.75;;;26.70;80.40;;;;;;6134841;28;80556;-68
2022/07/30 11:01:08;;;;;;;24.60;11.02;;;26.70;81.50;;;;;;6134696;28;83001;-68
2022/07/30 11:04:08;;;;;;;38.80;11.88;;;26.70;80.90;;;;;;6157750;28;83577;-69
2022/07/30 11:07:09;;;;;;;38.97;12.18;;;26.70;81.30;;;;;;6150537;28;85101;-68
2022/07/30 11:10:09;;;;;;;24.50;10.23;;;26.70;81.10;;;;;;6128608;28;83229;-69
2022/07/30 11:13:10;;;;;;;37.30;12.13;;;26.70;80.80;;;;;;6144102;28;83169;-67
2022/07/30 11:16:10;;;;;;;74.50;18.00;;;26.70;80.90;;;;;;6152420;28;83130;-68
2022/07/30 11:19:15;;;;;;;48.00;15.73;;;26.70;81.00;;;;;;6144566;28;83049;-68
2022/07/30 11:22:15;;;;;;;37.90;13.68;;;26.70;80.30;;;;;;6143739;28;83674;-68
2022/07/30 11:25:16;;;;;;;42.60;14.32;;;26.70;79.40;;;;;;6149224;28;84003;-68
2022/07/30 11:28:16;;;;;;;34.30;12.98;;;26.70;79.10;;;;;;6149726;28;83320;-66
2022/07/30 11:31:17;;;;;;;46.25;14.60;;;26.70;79.20;;;;;;6151601;28;84182;-67
2022/07/30 11:34:17;;;;;;;37.70;13.15;;;26.70;80.20;;;;;;6155496;28;83367;-65
2022/07/30 11:37:18;;;;;;;30.10;11.43;;;26.70;79.70;;;;;;6149776;28;83129;-65
2022/07/30 11:40:19;;;;;;;32.40;9.65;;;26.80;79.10;;;;;;6141161;28;83934;-65
2022/07/30 11:43:20;;;;;;;31.20;10.07;;;26.80;78.60;;;;;;6146274;28;84428;-64
2022/07/30 11:46:21;;;;;;;19.85;8.32;;;26.80;78.40;;;;;;6140913;28;83637;-64
2022/07/30 11:49:22;;;;;;;10.25;6.43;;;26.80;78.20;;;;;;6153328;28;82811;-65
2022/07/30 11:52:23;;;;;;;9.38;5.88;;;26.80;77.50;;;;;;6156221;28;81177;-64
2022/07/30 11:55:24;;;;;;;9.05;5.75;;;26.80;77.20;;;;;;6145732;28;80606;-65
2022/07/30 11:58:24;;;;;;;12.05;5.82;;;26.80;76.90;;;;;;6144982;28;80983;-64
2022/07/30 12:01:25;;;;;;;9.68;5.63;;;26.80;76.40;;;;;;6152106;28;80623;-66
2022/07/30 12:04:26;;;;;;;8.48;5.10;;;26.80;76.20;;;;;;6159493;28;80685;-66
2022/07/30 12:07:26;;;;;;;11.35;4.85;;;26.80;75.70;;;;;;6153557;28;80598;-66
2022/07/30 12:10:27;;;;;;;10.25;6.20;;;26.80;75.10;;;;;;6156137;28;80630;-66
2022/07/30 12:13:27;;;;;;;7.70;4.78;;;26.80;75.20;;;;;;6162052;28;80754;-67
2022/07/30 12:16:28;;;;;;;9.43;5.43;;;26.90;75.40;;;;;;6156943;28;80858;-63
2022/07/30 12:19:28;;;;;;;6.85;4.82;;;26.90;75.30;;;;;;6145792;28;81141;-64
2022/07/30 12:22:29;;;;;;;7.00;5.05;;;26.90;73.80;;;;;;6159869;28;81879;-65
2022/07/30 12:25:29;;;;;;;10.90;5.55;;;26.90;73.60;;;;;;6162122;28;80577;-64
2022/07/30 12:28:30;;;;;;;8.05;5.22;;;26.90;73.60;;;;;;6156398;28;81487;-65
2022/07/30 12:31:32;;;;;;;5.70;4.75;;;26.90;73.30;;;;;;6159221;28;80529;-65
2022/07/30 12:34:32;;;;;;;8.00;6.05;;;26.90;73.10;;;;;;6158779;28;80968;-64
2022/07/30 12:37:33;;;;;;;9.27;5.13;;;26.90;73.00;;;;;;6154647;28;80449;-64
2022/07/30 12:40:33;;;;;;;20.25;5.22;;;26.90;72.90;;;;;;6157941;28;81590;-66
2022/07/30 12:43:34;;;;;;;4.97;4.47;;;27.00;72.50;;;;;;6153281;28;80434;-65
2022/07/30 12:46:34;;;;;;;8.05;4.72;;;27.00;72.00;;;;;;6159822;28;80960;-66
2022/07/30 12:49:35;;;;;;;5.38;4.35;;;26.90;72.00;;;;;;6162271;28;80908;-65
2022/07/30 12:52:36;;;;;;;7.88;4.30;;;26.90;72.30;;;;;;6161795;28;81975;-65
2022/07/30 12:55:37;;;;;;;6.88;4.80;;;26.90;72.20;;;;;;6161511;28;80943;-65
2022/07/30 12:58:37;;;;;;;5.53;4.65;;;26.90;72.00;;;;;;6160690;28;83154;-66
2022/07/30 13:01:37;;;;;;;8.88;4.13;;;27.00;71.70;;;;;;6152276;28;80423;-66
2022/07/30 13:04:38;;;;;;;7.25;4.18;;;27.00;72.10;;;;;;6149430;28;80562;-67
2022/07/30 13:07:38;;;;;;;10.35;4.47;;;27.00;71.80;;;;;;6157080;28;80476;-67
2022/07/30 13:10:39;;;;;;;5.32;4.25;;;27.00;72.10;;;;;;6152381;28;80618;-68
2022/07/30 13:13:40;;;;;;;5.82;4.32;;;27.00;72.30;;;;;;6160034;28;80343;-68
2022/07/30 13:16:40;;;;;;;10.32;4.72;;;26.90;72.30;;;;;;6158159;28;80421;-68
2022/07/30 13:19:41;;;;;;;4.88;4.28;;;26.80;71.90;;;;;;6155526;28;80498;-68
2022/07/30 13:22:41;;;;;;;6.60;4.45;;;26.80;72.00;;;;;;6159004;28;80950;-65
2022/07/30 13:25:42;;;;;;;13.07;4.80;;;26.80;72.00;;;;;;6158083;28;80979;-69
2022/07/30 13:28:42;;;;;;;14.43;5.13;;;26.80;72.10;;;;;;6153920;28;81286;-67
2022/07/30 13:31:43;;;;;;;6.53;4.40;;;26.80;71.90;;;;;;6150695;28;80480;-68
2022/07/30 13:34:44;;;;;;;5.43;3.97;;;26.70;71.80;;;;;;6157744;28;81032;-68
2022/07/30 13:37:44;;;;;;;5.15;3.53;;;26.60;72.20;;;;;;6149699;28;82388;-67
2022/07/30 13:40:45;;;;;;;9.90;4.43;;;26.50;73.30;;;;;;6158428;28;80847;-67
2022/07/30 13:43:45;;;;;;;7.32;3.97;;;26.50;74.10;;;;;;6159283;28;80466;-68
2022/07/30 13:46:46;;;;;;;4.97;3.97;;;26.50;73.80;;;;;;6154271;28;81989;-67
2022/07/30 13:49:48;;;;;;;4.60;3.70;;;26.50;73.70;;;;;;6147467;28;80138;-68
2022/07/30 13:52:49;;;;;;;10.18;4.28;;;26.50;73.50;;;;;;6155484;28;81029;-68
2022/07/30 13:55:49;;;;;;;4.28;3.33;;;26.50;73.70;;;;;;6154131;28;80479;-67
2022/07/30 13:58:50;;;;;;;4.65;3.55;;;26.50;73.80;;;;;;6150173;28;82211;-66
2022/07/30 14:01:51;;;;;;;3.60;3.28;;;26.40;73.40;;;;;;6156602;28;80671;-69
2022/07/30 14:04:51;;;;;;;4.90;3.33;;;26.50;73.80;;;;;;6159429;28;81494;-67
2022/07/30 14:07:52;;;;;;;5.28;3.28;;;26.40;74.10;;;;;;6156839;28;80504;-68
2022/07/30 14:10:52;;;;;;;4.60;3.40;;;26.40;74.30;;;;;;6145114;28;80345;-67
2022/07/30 14:13:52;;;;;;;5.05;3.67;;;26.40;74.30;;;;;;6128229;28;80511;-66
2022/07/30 14:16:53;;;;;;;6.13;3.40;;;26.40;74.50;;;;;;6123160;28;80653;-67
2022/07/30 14:19:53;;;;;;;6.90;3.50;;;26.40;74.90;;;;;;6121758;28;80494;-67
2022/07/30 14:22:54;;;;;;;4.20;3.67;;;26.30;75.10;;;;;;6132190;28;80489;-67
2022/07/30 14:25:54;;;;;;;4.28;3.60;;;26.30;75.10;;;;;;6122228;28;80240;-68
2022/07/30 14:28:55;;;;;;;5.82;3.72;;;26.40;74.70;;;;;;6150935;28;80407;-68
2022/07/30 14:31:55;;;;;;;3.42;3.13;;;26.30;74.80;;;;;;6157361;28;81579;-69
2022/07/30 14:34:56;;;;;;;6.03;3.72;;;26.30;75.10;;;;;;6136732;28;80264;-67
2022/07/30 14:37:56;;;;;;;6.80;4.18;;;26.30;75.60;;;;;;6146334;28;80268;-66
2022/07/30 14:40:57;;;;;;;5.18;3.90;;;26.20;76.00;;;;;;6156725;28;80623;-66
2022/07/30 14:43:57;;;;;;;4.43;3.25;;;26.20;75.70;;;;;;6155027;28;80884;-66
2022/07/30 14:46:58;;;;;;;5.50;3.38;;;26.20;75.70;;;;;;6144797;28;80870;-68
2022/07/30 14:49:59;;;;;;;5.45;4.10;;;26.20;75.80;;;;;;6145889;28;80482;-68
2022/07/30 14:52:59;;;;;;;5.28;3.58;;;26.20;76.00;;;;;;6146955;28;80763;-68
2022/07/30 14:55:59;;;;;;;7.20;4.15;;;26.30;75.80;;;;;;6147130;28;80181;-68
2022/07/30 14:59:00;;;;;;;4.18;3.67;;;26.20;75.90;;;;;;6153700;28;81613;-68
2022/07/30 15:02:00;;;;;;;5.70;3.60;;;26.20;76.10;;;;;;6145176;28;80738;-68
2022/07/30 15:05:01;;;;;;;7.13;4.20;;;26.20;76.80;;;;;;6145911;28;80237;-68
2022/07/30 15:08:01;;;;;;;4.72;3.72;;;26.20;76.90;;;;;;6157294;28;80774;-69
2022/07/30 15:11:02;;;;;;;9.27;4.45;;;26.20;76.50;;;;;;6149330;28;80538;-68
2022/07/30 15:14:03;;;;;;;6.47;3.60;;;26.10;76.60;;;;;;6153133;28;80372;-66
2022/07/30 15:17:04;;;;;;;5.15;4.15;;;26.10;77.00;;;;;;6148664;28;82081;-67
2022/07/30 15:20:07;;;;;;;5.43;3.90;;;26.10;77.10;;;;;;6150173;28;80578;-67
2022/07/30 15:23:08;;;;;;;8.93;4.93;;;26.20;77.40;;;;;;6154669;28;81448;-67
2022/07/30 15:26:08;;;;;;;5.30;3.67;;;26.20;77.20;;;;;;6148324;28;80595;-66
2022/07/30 15:29:09;;;;;;;5.20;3.90;;;26.20;77.10;;;;;;6145091;28;81265;-67
2022/07/30 15:32:09;;;;;;;4.95;3.95;;;26.20;77.10;;;;;;6139462;28;80302;-67
2022/07/30 15:35:10;;;;;;;6.65;4.53;;;26.20;77.30;;;;;;6154730;28;80384;-68
2022/07/30 15:38:10;;;;;;;5.60;4.32;;;26.20;77.10;;;;;;6152057;28;80597;-68
2022/07/30 15:41:11;;;;;;;5.93;4.28;;;26.30;77.30;;;;;;6153006;28;81437;-68
2022/07/30 15:44:12;;;;;;;6.47;4.60;;;26.20;77.00;;;;;;6152733;28;81202;-67
2022/07/30 15:47:13;;;;;;;6.00;4.78;;;26.30;76.90;;;;;;6150390;28;81128;-67
2022/07/30 15:50:15;;;;;;;6.15;4.57;;;26.30;77.00;;;;;;6153919;28;80377;-68